sensor_id;sensor_type;location;lat;lon;timestamp;temperature;humidity
67572;SHT31;54397;47.506;19.158;2023-03-01T00:00:51;6.29;61.86
67572;SHT31;54397;47.506;19.158;2023-03-01T00:04:12;6.27;61.71
67572;SHT31;54397;47.506;19.158;2023-03-01T00:07:34;6.29;61.47
67572;SHT31;54397;47.506;19.158;2023-03-01T00:11:06;6.44;61.36
67572;SHT31;54397;47.506;19.158;2023-03-01T00:14:28;6.44;61.17
67572;SHT31;54397;47.506;19.158;2023-03-01T00:17:49;6.52;61.33
67572;SHT31;54397;47.506;19.158;2023-03-01T00:21:11;6.51;61.05
67572;SHT31;54397;47.506;19.158;2023-03-01T00:24:33;6.68;60.57
67572;SHT31;54397;47.506;19.158;2023-03-01T00:27:55;6.59;60.72
67572;SHT31;54397;47.506;19.158;2023-03-01T00:31:19;6.44;61.15
67572;SHT31;54397;47.506;19.158;2023-03-01T00:34:41;6.38;61.56
67572;SHT31;54397;47.506;19.158;2023-03-01T00:38:16;6.48;61.11
67572;SHT31;54397;47.506;19.158;2023-03-01T00:41:41;6.42;61.65
67572;SHT31;54397;47.506;19.158;2023-03-01T00:45:06;6.33;62.19
67572;SHT31;54397;47.506;19.158;2023-03-01T00:48:29;6.27;62.48
67572;SHT31;54397;47.506;19.158;2023-03-01T00:51:50;6.30;62.22
67572;SHT31;54397;47.506;19.158;2023-03-01T00:55:19;6.36;61.85
67572;SHT31;54397;47.506;19.158;2023-03-01T00:58:44;6.38;61.40
67572;SHT31;54397;47.506;19.158;2023-03-01T01:02:08;6.36;61.83
67572;SHT31;54397;47.506;19.158;2023-03-01T01:05:30;6.27;61.82
67572;SHT31;54397;47.506;19.158;2023-03-01T01:08:53;6.29;61.86
67572;SHT31;54397;47.506;19.158;2023-03-01T01:12:17;6.27;62.15
67572;SHT31;54397;47.506;19.158;2023-03-01T01:15:41;6.30;61.78
67572;SHT31;54397;47.506;19.158;2023-03-01T01:19:03;6.30;62.07
67572;SHT31;54397;47.506;19.158;2023-03-01T01:22:25;6.29;61.72
67572;SHT31;54397;47.506;19.158;2023-03-01T01:25:54;6.37;61.33
67572;SHT31;54397;47.506;19.158;2023-03-01T01:29:16;6.33;60.73
67572;SHT31;54397;47.506;19.158;2023-03-01T01:32:37;6.31;61.92
67572;SHT31;54397;47.506;19.158;2023-03-01T01:36:01;6.42;61.88
67572;SHT31;54397;47.506;19.158;2023-03-01T01:39:24;6.45;61.88
67572;SHT31;54397;47.506;19.158;2023-03-01T01:42:45;6.45;60.80
67572;SHT31;54397;47.506;19.158;2023-03-01T01:46:29;6.42;61.43
67572;SHT31;54397;47.506;19.158;2023-03-01T01:49:55;6.44;61.12
67572;SHT31;54397;47.506;19.158;2023-03-01T01:53:19;6.57;61.18
67572;SHT31;54397;47.506;19.158;2023-03-01T01:56:44;6.50;61.64
67572;SHT31;54397;47.506;19.158;2023-03-01T02:00:10;6.47;61.79
67572;SHT31;54397;47.506;19.158;2023-03-01T02:03:35;6.41;62.00
67572;SHT31;54397;47.506;19.158;2023-03-01T02:07:14;6.36;62.03
67572;SHT31;54397;47.506;19.158;2023-03-01T02:10:41;6.31;62.30
67572;SHT31;54397;47.506;19.158;2023-03-01T02:14:03;6.24;62.60
67572;SHT31;54397;47.506;19.158;2023-03-01T02:17:25;6.21;63.13
67572;SHT31;54397;47.506;19.158;2023-03-01T02:24:31;6.10;63.18
67572;SHT31;54397;47.506;19.158;2023-03-01T02:28:02;6.07;63.71
67572;SHT31;54397;47.506;19.158;2023-03-01T02:31:29;6.07;63.83
67572;SHT31;54397;47.506;19.158;2023-03-01T02:35:06;6.16;63.15
67572;SHT31;54397;47.506;19.158;2023-03-01T02:38:28;6.20;63.65
67572;SHT31;54397;47.506;19.158;2023-03-01T02:41:52;6.21;63.69
67572;SHT31;54397;47.506;19.158;2023-03-01T02:45:22;6.10;64.61
67572;SHT31;54397;47.506;19.158;2023-03-01T02:48:49;6.14;64.83
67572;SHT31;54397;47.506;19.158;2023-03-01T02:55:54;5.99;65.15
67572;SHT31;54397;47.506;19.158;2023-03-01T02:59:24;5.95;65.63
67572;SHT31;54397;47.506;19.158;2023-03-01T03:02:52;6.06;65.09
67572;SHT31;54397;47.506;19.158;2023-03-01T03:06:14;6.10;65.14
67572;SHT31;54397;47.506;19.158;2023-03-01T03:09:39;5.99;65.59
67572;SHT31;54397;47.506;19.158;2023-03-01T03:13:04;5.95;65.69
67572;SHT31;54397;47.506;19.158;2023-03-01T03:16:28;6.05;65.24
67572;SHT31;54397;47.506;19.158;2023-03-01T03:19:51;5.99;65.03
67572;SHT31;54397;47.506;19.158;2023-03-01T03:23:15;6.07;64.58
67572;SHT31;54397;47.506;19.158;2023-03-01T03:26:39;6.14;64.03
67572;SHT31;54397;47.506;19.158;2023-03-01T03:30:05;6.10;64.20
67572;SHT31;54397;47.506;19.158;2023-03-01T03:33:30;5.99;64.56
67572;SHT31;54397;47.506;19.158;2023-03-01T03:36:56;5.96;64.95
67572;SHT31;54397;47.506;19.158;2023-03-01T03:40:20;6.02;64.85
67572;SHT31;54397;47.506;19.158;2023-03-01T03:43:45;6.05;64.76
67572;SHT31;54397;47.506;19.158;2023-03-01T03:47:07;6.19;64.30
67572;SHT31;54397;47.506;19.158;2023-03-01T03:50:28;6.06;64.91
67572;SHT31;54397;47.506;19.158;2023-03-01T03:53:50;6.03;65.18
67572;SHT31;54397;47.506;19.158;2023-03-01T03:57:12;6.13;64.39
67572;SHT31;54397;47.506;19.158;2023-03-01T04:00:40;6.09;64.22
67572;SHT31;54397;47.506;19.158;2023-03-01T04:04:03;6.13;64.64
67572;SHT31;54397;47.506;19.158;2023-03-01T04:07:25;6.10;64.97
67572;SHT31;54397;47.506;19.158;2023-03-01T04:10:52;6.16;64.49
67572;SHT31;54397;47.506;19.158;2023-03-01T04:14:17;6.19;64.49
67572;SHT31;54397;47.506;19.158;2023-03-01T04:17:44;6.23;63.95
67572;SHT31;54397;47.506;19.158;2023-03-01T04:21:06;6.21;64.47
67572;SHT31;54397;47.506;19.158;2023-03-01T04:24:27;6.14;64.76
67572;SHT31;54397;47.506;19.158;2023-03-01T04:27:49;6.23;63.98
67572;SHT31;54397;47.506;19.158;2023-03-01T04:31:13;6.23;64.72
67572;SHT31;54397;47.506;19.158;2023-03-01T04:34:35;6.20;64.19
67572;SHT31;54397;47.506;19.158;2023-03-01T04:38:00;6.11;64.89
67572;SHT31;54397;47.506;19.158;2023-03-01T04:41:26;6.06;64.95
67572;SHT31;54397;47.506;19.158;2023-03-01T04:44:48;6.07;65.10
67572;SHT31;54397;47.506;19.158;2023-03-01T04:48:12;6.17;64.77
67572;SHT31;54397;47.506;19.158;2023-03-01T04:51:34;6.29;64.26
67572;SHT31;54397;47.506;19.158;2023-03-01T04:54:55;6.33;64.25
67572;SHT31;54397;47.506;19.158;2023-03-01T04:58:19;6.30;64.30
67572;SHT31;54397;47.506;19.158;2023-03-01T05:01:41;6.27;64.30
67572;SHT31;54397;47.506;19.158;2023-03-01T05:05:06;6.21;64.67
67572;SHT31;54397;47.506;19.158;2023-03-01T05:08:28;6.21;64.74
67572;SHT31;54397;47.506;19.158;2023-03-01T05:11:49;6.27;64.42
67572;SHT31;54397;47.506;19.158;2023-03-01T05:15:13;6.34;64.05
67572;SHT31;54397;47.506;19.158;2023-03-01T05:18:35;6.30;64.20
67572;SHT31;54397;47.506;19.158;2023-03-01T05:22:02;6.29;63.94
67572;SHT31;54397;47.506;19.158;2023-03-01T05:25:27;6.29;64.61
67572;SHT31;54397;47.506;19.158;2023-03-01T05:28:55;6.16;65.29
67572;SHT31;54397;47.506;19.158;2023-03-01T05:32:23;6.27;64.83
67572;SHT31;54397;47.506;19.158;2023-03-01T05:35:45;6.13;65.07
67572;SHT31;54397;47.506;19.158;2023-03-01T05:39:10;6.14;65.44
67572;SHT31;54397;47.506;19.158;2023-03-01T05:42:31;6.21;65.33
67572;SHT31;54397;47.506;19.158;2023-03-01T05:45:57;6.33;64.45
67572;SHT31;54397;47.506;19.158;2023-03-01T05:49:22;6.26;65.04
67572;SHT31;54397;47.506;19.158;2023-03-01T05:52:58;6.23;64.72
67572;SHT31;54397;47.506;19.158;2023-03-01T05:56:20;6.20;65.47
67572;SHT31;54397;47.506;19.158;2023-03-01T05:59:45;6.26;65.55
67572;SHT31;54397;47.506;19.158;2023-03-01T06:03:11;6.24;65.41
67572;SHT31;54397;47.506;19.158;2023-03-01T06:06:35;6.27;65.28
67572;SHT31;54397;47.506;19.158;2023-03-01T06:09:58;6.27;64.88
67572;SHT31;54397;47.506;19.158;2023-03-01T06:13:20;6.30;65.52
67572;SHT31;54397;47.506;19.158;2023-03-01T06:16:44;6.30;65.63
67572;SHT31;54397;47.506;19.158;2023-03-01T06:23:29;6.21;65.70
67572;SHT31;54397;47.506;19.158;2023-03-01T06:26:53;6.34;65.44
67572;SHT31;54397;47.506;19.158;2023-03-01T06:30:16;6.47;64.86
67572;SHT31;54397;47.506;19.158;2023-03-01T06:33:44;6.41;64.20
67572;SHT31;54397;47.506;19.158;2023-03-01T06:37:06;6.42;64.84
67572;SHT31;54397;47.506;19.158;2023-03-01T06:40:29;6.38;64.79
67572;SHT31;54397;47.506;19.158;2023-03-01T06:43:51;6.57;64.54
67572;SHT31;54397;47.506;19.158;2023-03-01T06:47:13;6.61;63.66
67572;SHT31;54397;47.506;19.158;2023-03-01T06:50:37;6.59;63.98
67572;SHT31;54397;47.506;19.158;2023-03-01T06:54:01;6.67;63.72
67572;SHT31;54397;47.506;19.158;2023-03-01T06:57:26;6.74;63.28
67572;SHT31;54397;47.506;19.158;2023-03-01T07:00:50;6.71;63.38
67572;SHT31;54397;47.506;19.158;2023-03-01T07:04:15;6.75;63.84
67572;SHT31;54397;47.506;19.158;2023-03-01T07:07:37;6.74;63.90
67572;SHT31;54397;47.506;19.158;2023-03-01T07:11:01;6.81;62.98
67572;SHT31;54397;47.506;19.158;2023-03-01T07:14:27;6.75;62.41
67572;SHT31;54397;47.506;19.158;2023-03-01T07:17:48;6.84;63.02
67572;SHT31;54397;47.506;19.158;2023-03-01T07:21:13;6.82;62.88
67572;SHT31;54397;47.506;19.158;2023-03-01T07:24:35;6.95;63.00
67572;SHT31;54397;47.506;19.158;2023-03-01T07:27:57;7.00;63.02
67572;SHT31;54397;47.506;19.158;2023-03-01T07:31:21;7.05;63.34
67572;SHT31;54397;47.506;19.158;2023-03-01T07:34:48;7.23;62.26
67572;SHT31;54397;47.506;19.158;2023-03-01T07:38:10;7.28;61.65
67572;SHT31;54397;47.506;19.158;2023-03-01T07:41:32;7.24;61.88
67572;SHT31;54397;47.506;19.158;2023-03-01T07:44:53;7.15;60.50
67572;SHT31;54397;47.506;19.158;2023-03-01T07:48:16;7.38;61.03
67572;SHT31;54397;47.506;19.158;2023-03-01T07:51:42;7.42;60.64
67572;SHT31;54397;47.506;19.158;2023-03-01T07:55:05;7.34;60.49
67572;SHT31;54397;47.506;19.158;2023-03-01T07:58:29;7.40;60.76
67572;SHT31;54397;47.506;19.158;2023-03-01T08:01:50;7.61;60.99
67572;SHT31;54397;47.506;19.158;2023-03-01T08:05:12;7.68;59.48
67572;SHT31;54397;47.506;19.158;2023-03-01T08:08:34;7.64;59.73
67572;SHT31;54397;47.506;19.158;2023-03-01T08:11:57;7.85;59.61
67572;SHT31;54397;47.506;19.158;2023-03-01T08:15:23;7.99;58.55
67572;SHT31;54397;47.506;19.158;2023-03-01T08:18:45;7.88;58.71
67572;SHT31;54397;47.506;19.158;2023-03-01T08:22:06;8.22;58.16
67572;SHT31;54397;47.506;19.158;2023-03-01T08:25:28;8.44;57.35
67572;SHT31;54397;47.506;19.158;2023-03-01T08:28:52;8.53;56.65
67572;SHT31;54397;47.506;19.158;2023-03-01T08:32:16;8.74;55.55
67572;SHT31;54397;47.506;19.158;2023-03-01T08:35:37;8.33;56.34
67572;SHT31;54397;47.506;19.158;2023-03-01T08:39:01;8.59;57.64
67572;SHT31;54397;47.506;19.158;2023-03-01T08:42:23;8.54;57.37
67572;SHT31;54397;47.506;19.158;2023-03-01T08:45:48;8.99;56.99
67572;SHT31;54397;47.506;19.158;2023-03-01T08:49:15;9.61;54.83
67572;SHT31;54397;47.506;19.158;2023-03-01T08:52:39;9.71;53.79
67572;SHT31;54397;47.506;19.158;2023-03-01T08:56:00;10.08;53.73
67572;SHT31;54397;47.506;19.158;2023-03-01T08:59:25;10.15;52.60
67572;SHT31;54397;47.506;19.158;2023-03-01T09:02:50;10.53;51.94
67572;SHT31;54397;47.506;19.158;2023-03-01T09:06:15;10.59;50.75
67572;SHT31;54397;47.506;19.158;2023-03-01T09:09:37;11.04;51.14
67572;SHT31;54397;47.506;19.158;2023-03-01T09:13:01;11.43;50.01
67572;SHT31;54397;47.506;19.158;2023-03-01T09:16:26;11.54;49.66
67572;SHT31;54397;47.506;19.158;2023-03-01T09:19:48;11.56;49.19
67572;SHT31;54397;47.506;19.158;2023-03-01T09:23:10;11.49;48.71
67572;SHT31;54397;47.506;19.158;2023-03-01T09:26:32;11.54;48.45
67572;SHT31;54397;47.506;19.158;2023-03-01T09:29:56;11.91;48.39
67572;SHT31;54397;47.506;19.158;2023-03-01T09:33:18;12.05;48.16
67572;SHT31;54397;47.506;19.158;2023-03-01T09:36:42;11.63;49.10
67572;SHT31;54397;47.506;19.158;2023-03-01T09:40:09;11.95;48.91
67572;SHT31;54397;47.506;19.158;2023-03-01T09:43:47;12.59;47.61
67572;SHT31;54397;47.506;19.158;2023-03-01T09:47:13;12.83;46.81
67572;SHT31;54397;47.506;19.158;2023-03-01T09:50:43;13.06;46.43
67572;SHT31;54397;47.506;19.158;2023-03-01T09:54:09;13.45;45.33
67572;SHT31;54397;47.506;19.158;2023-03-01T09:57:54;13.75;44.18
67572;SHT31;54397;47.506;19.158;2023-03-01T10:01:49;13.93;43.00
67572;SHT31;54397;47.506;19.158;2023-03-01T10:09:17;13.90;43.40
67572;SHT31;54397;47.506;19.158;2023-03-01T10:12:40;13.92;43.20
67572;SHT31;54397;47.506;19.158;2023-03-01T10:16:13;14.08;42.38
67572;SHT31;54397;47.506;19.158;2023-03-01T10:19:36;14.75;41.33
67572;SHT31;54397;47.506;19.158;2023-03-01T10:23:02;15.33;40.36
67572;SHT31;54397;47.506;19.158;2023-03-01T10:33:38;16.73;37.60
67572;SHT31;54397;47.506;19.158;2023-03-01T10:37:10;16.97;37.66
67572;SHT31;54397;47.506;19.158;2023-03-01T10:40:34;17.04;36.77
67572;SHT31;54397;47.506;19.158;2023-03-01T10:43:57;17.53;36.44
67572;SHT31;54397;47.506;19.158;2023-03-01T10:47:26;17.79;35.67
67572;SHT31;54397;47.506;19.158;2023-03-01T10:57:41;18.31;43.51
67572;SHT31;54397;47.506;19.158;2023-03-01T11:01:33;18.79;38.54
67572;SHT31;54397;47.506;19.158;2023-03-01T11:08:37;19.18;36.30
67572;SHT31;54397;47.506;19.158;2023-03-01T11:12:02;19.18;35.68
67572;SHT31;54397;47.506;19.158;2023-03-01T11:15:26;18.96;35.16
67572;SHT31;54397;47.506;19.158;2023-03-01T11:19:23;18.49;35.25
67572;SHT31;54397;47.506;19.158;2023-03-01T11:22:56;18.42;35.38
67572;SHT31;54397;47.506;19.158;2023-03-01T11:26:19;18.30;35.27
67572;SHT31;54397;47.506;19.158;2023-03-01T11:29:48;18.61;35.64
67572;SHT31;54397;47.506;19.158;2023-03-01T11:33:44;18.76;35.57
67572;SHT31;54397;47.506;19.158;2023-03-01T11:37:16;18.76;35.11
67572;SHT31;54397;47.506;19.158;2023-03-01T11:44:25;18.85;33.81
67572;SHT31;54397;47.506;19.158;2023-03-01T11:52:00;18.18;35.65
67572;SHT31;54397;47.506;19.158;2023-03-01T11:59:11;18.68;39.32
67572;SHT31;54397;47.506;19.158;2023-03-01T12:10:19;18.13;39.13
67572;SHT31;54397;47.506;19.158;2023-03-01T12:32:15;16.23;38.88
67572;SHT31;54397;47.506;19.158;2023-03-01T12:36:18;16.79;39.58
67572;SHT31;54397;47.506;19.158;2023-03-01T12:43:23;16.42;39.48
67572;SHT31;54397;47.506;19.158;2023-03-01T12:47:20;17.01;38.13
67572;SHT31;54397;47.506;19.158;2023-03-01T12:50:48;17.18;37.78
67572;SHT31;54397;47.506;19.158;2023-03-01T12:54:27;17.21;37.68
67572;SHT31;54397;47.506;19.158;2023-03-01T12:58:00;17.22;43.01
67572;SHT31;54397;47.506;19.158;2023-03-01T13:01:27;17.00;41.45
67572;SHT31;54397;47.506;19.158;2023-03-01T13:05:05;17.28;42.39
67572;SHT31;54397;47.506;19.158;2023-03-01T13:08:58;17.14;43.31
67572;SHT31;54397;47.506;19.158;2023-03-01T13:16:41;17.07;44.73
67572;SHT31;54397;47.506;19.158;2023-03-01T13:20:12;17.01;40.91
67572;SHT31;54397;47.506;19.158;2023-03-01T13:23:37;16.38;39.52
67572;SHT31;54397;47.506;19.158;2023-03-01T13:33:58;15.20;42.62
67572;SHT31;54397;47.506;19.158;2023-03-01T13:37:26;15.20;42.60
67572;SHT31;54397;47.506;19.158;2023-03-01T13:47:45;15.06;43.56
67572;SHT31;54397;47.506;19.158;2023-03-01T13:51:12;14.91;44.84
67572;SHT31;54397;47.506;19.158;2023-03-01T13:54:37;15.06;43.51
67572;SHT31;54397;47.506;19.158;2023-03-01T13:58:02;14.89;44.21
67572;SHT31;54397;47.506;19.158;2023-03-01T14:01:35;14.89;44.81
67572;SHT31;54397;47.506;19.158;2023-03-01T14:05:03;14.87;43.67
67572;SHT31;54397;47.506;19.158;2023-03-01T14:08:29;14.65;49.76
67572;SHT31;54397;47.506;19.158;2023-03-01T14:19:43;15.70;49.09
67572;SHT31;54397;47.506;19.158;2023-03-01T14:23:15;15.93;47.30
67572;SHT31;54397;47.506;19.158;2023-03-01T14:26:38;15.37;44.85
67572;SHT31;54397;47.506;19.158;2023-03-01T14:30:11;15.23;48.24
67572;SHT31;54397;47.506;19.158;2023-03-01T14:33:36;15.42;48.32
67572;SHT31;54397;47.506;19.158;2023-03-01T14:37:10;15.15;43.74
67572;SHT31;54397;47.506;19.158;2023-03-01T14:40:34;14.88;43.82
67572;SHT31;54397;47.506;19.158;2023-03-01T14:44:00;14.38;44.09
67572;SHT31;54397;47.506;19.158;2023-03-01T14:47:34;14.31;45.14
67572;SHT31;54397;47.506;19.158;2023-03-01T14:50:56;14.20;45.10
67572;SHT31;54397;47.506;19.158;2023-03-01T14:54:27;14.10;45.46
67572;SHT31;54397;47.506;19.158;2023-03-01T14:57:50;14.08;45.09
67572;SHT31;54397;47.506;19.158;2023-03-01T15:01:15;14.22;45.77
67572;SHT31;54397;47.506;19.158;2023-03-01T15:04:37;14.22;45.96
67572;SHT31;54397;47.506;19.158;2023-03-01T15:08:00;14.08;45.59
67572;SHT31;54397;47.506;19.158;2023-03-01T15:11:33;14.05;45.76
67572;SHT31;54397;47.506;19.158;2023-03-01T15:14:56;13.83;46.53
67572;SHT31;54397;47.506;19.158;2023-03-01T15:18:29;13.85;46.73
67572;SHT31;54397;47.506;19.158;2023-03-01T15:21:54;13.71;46.15
67572;SHT31;54397;47.506;19.158;2023-03-01T15:25:21;13.74;54.10
67572;SHT31;54397;47.506;19.158;2023-03-01T15:28:50;14.08;53.52
67572;SHT31;54397;47.506;19.158;2023-03-01T15:32:33;14.14;45.53
67572;SHT31;54397;47.506;19.158;2023-03-01T15:36:47;13.90;45.19
67572;SHT31;54397;47.506;19.158;2023-03-01T15:39:57;13.72;46.05
67572;SHT31;54397;47.506;19.158;2023-03-01T15:43:45;13.48;46.08
67572;SHT31;54397;47.506;19.158;2023-03-01T15:47:26;13.40;46.80
67572;SHT31;54397;47.506;19.158;2023-03-01T15:50:57;13.21;47.00
67572;SHT31;54397;47.506;19.158;2023-03-01T15:54:21;13.10;47.55
67572;SHT31;54397;47.506;19.158;2023-03-01T15:57:43;12.88;47.30
67572;SHT31;54397;47.506;19.158;2023-03-01T16:01:12;12.88;47.86
67572;SHT31;54397;47.506;19.158;2023-03-01T16:04:34;12.75;48.64
67572;SHT31;54397;47.506;19.158;2023-03-01T16:07:56;12.73;49.14
67572;SHT31;54397;47.506;19.158;2023-03-01T16:11:21;12.62;48.84
67572;SHT31;54397;47.506;19.158;2023-03-01T16:14:43;12.46;49.03
67572;SHT31;54397;47.506;19.158;2023-03-01T16:18:07;12.38;49.51
67572;SHT31;54397;47.506;19.158;2023-03-01T16:21:34;12.18;49.91
67572;SHT31;54397;47.506;19.158;2023-03-01T16:24:58;12.16;50.36
67572;SHT31;54397;47.506;19.158;2023-03-01T16:28:20;12.14;50.48
67572;SHT31;54397;47.506;19.158;2023-03-01T16:31:44;12.03;50.57
67572;SHT31;54397;47.506;19.158;2023-03-01T16:35:07;11.97;51.17
67572;SHT31;54397;47.506;19.158;2023-03-01T16:38:32;11.91;50.25
67572;SHT31;54397;47.506;19.158;2023-03-01T16:41:58;11.90;50.89
67572;SHT31;54397;47.506;19.158;2023-03-01T16:45:21;11.89;51.18
67572;SHT31;54397;47.506;19.158;2023-03-01T16:48:46;11.90;51.48
67572;SHT31;54397;47.506;19.158;2023-03-01T16:52:08;11.86;51.37
67572;SHT31;54397;47.506;19.158;2023-03-01T16:55:32;11.67;51.39
67572;SHT31;54397;47.506;19.158;2023-03-01T16:58:54;11.54;52.62
67572;SHT31;54397;47.506;19.158;2023-03-01T17:02:16;11.51;52.14
67572;SHT31;54397;47.506;19.158;2023-03-01T17:05:41;11.56;52.62
67572;SHT31;54397;47.506;19.158;2023-03-01T17:09:05;11.55;52.61
67572;SHT31;54397;47.506;19.158;2023-03-01T17:12:26;11.36;53.22
67572;SHT31;54397;47.506;19.158;2023-03-01T17:15:52;11.18;53.37
67572;SHT31;54397;47.506;19.158;2023-03-01T17:19:13;11.08;53.93
67572;SHT31;54397;47.506;19.158;2023-03-01T17:22:39;11.11;54.37
67572;SHT31;54397;47.506;19.158;2023-03-01T17:26:03;11.17;54.15
67572;SHT31;54397;47.506;19.158;2023-03-01T17:29:27;10.98;54.75
67572;SHT31;54397;47.506;19.158;2023-03-01T17:32:49;10.87;55.43
67572;SHT31;54397;47.506;19.158;2023-03-01T17:36:17;10.79;54.81
67572;SHT31;54397;47.506;19.158;2023-03-01T17:39:41;10.77;54.96
67572;SHT31;54397;47.506;19.158;2023-03-01T17:43:05;10.77;54.98
67572;SHT31;54397;47.506;19.158;2023-03-01T17:46:26;10.63;55.43
67572;SHT31;54397;47.506;19.158;2023-03-01T17:49:48;10.57;55.84
67572;SHT31;54397;47.506;19.158;2023-03-01T17:53:10;10.46;55.86
67572;SHT31;54397;47.506;19.158;2023-03-01T17:56:32;10.35;56.22
67572;SHT31;54397;47.506;19.158;2023-03-01T17:59:54;10.14;56.75
67572;SHT31;54397;47.506;19.158;2023-03-01T18:03:16;10.08;56.97
67572;SHT31;54397;47.506;19.158;2023-03-01T18:06:38;9.94;57.43
67572;SHT31;54397;47.506;19.158;2023-03-01T18:10:02;9.85;58.14
67572;SHT31;54397;47.506;19.158;2023-03-01T18:13:24;9.94;57.09
67572;SHT31;54397;47.506;19.158;2023-03-01T18:16:46;10.01;57.62
67572;SHT31;54397;47.506;19.158;2023-03-01T18:20:08;9.80;57.74
67572;SHT31;54397;47.506;19.158;2023-03-01T18:23:33;9.54;58.80
67572;SHT31;54397;47.506;19.158;2023-03-01T18:26:55;9.74;57.76
67572;SHT31;54397;47.506;19.158;2023-03-01T18:30:17;9.54;58.85
67572;SHT31;54397;47.506;19.158;2023-03-01T18:33:39;9.36;59.25
67572;SHT31;54397;47.506;19.158;2023-03-01T18:37:03;9.22;59.74
67572;SHT31;54397;47.506;19.158;2023-03-01T18:40:32;8.95;59.93
67572;SHT31;54397;47.506;19.158;2023-03-01T18:43:54;8.93;60.20
67572;SHT31;54397;47.506;19.158;2023-03-01T18:47:17;9.08;59.30
67572;SHT31;54397;47.506;19.158;2023-03-01T18:50:39;8.87;60.27
67572;SHT31;54397;47.506;19.158;2023-03-01T18:54:00;8.87;60.59
67572;SHT31;54397;47.506;19.158;2023-03-01T18:57:22;8.82;60.31
67572;SHT31;54397;47.506;19.158;2023-03-01T19:00:44;8.71;60.44
67572;SHT31;54397;47.506;19.158;2023-03-01T19:04:05;8.60;60.72
67572;SHT31;54397;47.506;19.158;2023-03-01T19:07:29;8.65;60.35
67572;SHT31;54397;47.506;19.158;2023-03-01T19:11:00;8.44;60.78
67572;SHT31;54397;47.506;19.158;2023-03-01T19:14:22;8.36;61.04
67572;SHT31;54397;47.506;19.158;2023-03-01T19:17:49;8.17;61.97
67572;SHT31;54397;47.506;19.158;2023-03-01T19:21:12;7.92;62.29
67572;SHT31;54397;47.506;19.158;2023-03-01T19:24:34;7.96;62.53
67572;SHT31;54397;47.506;19.158;2023-03-01T19:27:58;7.89;62.93
67572;SHT31;54397;47.506;19.158;2023-03-01T19:31:24;7.92;62.78
67572;SHT31;54397;47.506;19.158;2023-03-01T19:34:49;7.92;62.65
67572;SHT31;54397;47.506;19.158;2023-03-01T19:38:11;7.95;62.76
67572;SHT31;54397;47.506;19.158;2023-03-01T19:41:32;8.22;61.24
67572;SHT31;54397;47.506;19.158;2023-03-01T19:44:54;8.34;60.76
67572;SHT31;54397;47.506;19.158;2023-03-01T19:48:22;8.25;61.42
67572;SHT31;54397;47.506;19.158;2023-03-01T19:51:44;8.28;61.14
67572;SHT31;54397;47.506;19.158;2023-03-01T19:55:06;8.06;61.18
67572;SHT31;54397;47.506;19.158;2023-03-01T19:58:31;8.07;61.13
67572;SHT31;54397;47.506;19.158;2023-03-01T20:01:53;8.10;60.58
67572;SHT31;54397;47.506;19.158;2023-03-01T20:05:15;7.99;61.30
67572;SHT31;54397;47.506;19.158;2023-03-01T20:08:36;7.82;61.85
67572;SHT31;54397;47.506;19.158;2023-03-01T20:12:03;7.71;62.19
67572;SHT31;54397;47.506;19.158;2023-03-01T20:15:27;7.61;62.78
67572;SHT31;54397;47.506;19.158;2023-03-01T20:18:50;7.44;62.89
67572;SHT31;54397;47.506;19.158;2023-03-01T20:22:12;7.47;63.12
67572;SHT31;54397;47.506;19.158;2023-03-01T20:25:35;7.54;63.08
67572;SHT31;54397;47.506;19.158;2023-03-01T20:28:59;7.43;70.16
67572;SHT31;54397;47.506;19.158;2023-03-01T20:32:21;7.72;72.61
67572;SHT31;54397;47.506;19.158;2023-03-01T20:35:47;8.05;69.71
67572;SHT31;54397;47.506;19.158;2023-03-01T20:39:16;8.17;68.46
67572;SHT31;54397;47.506;19.158;2023-03-01T20:42:43;8.29;68.37
67572;SHT31;54397;47.506;19.158;2023-03-01T20:46:06;8.34;68.45
67572;SHT31;54397;47.506;19.158;2023-03-01T20:49:30;8.07;61.50
67572;SHT31;54397;47.506;19.158;2023-03-01T20:52:52;7.78;62.27
67572;SHT31;54397;47.506;19.158;2023-03-01T20:56:18;7.50;62.93
67572;SHT31;54397;47.506;19.158;2023-03-01T20:59:42;7.37;63.40
67572;SHT31;54397;47.506;19.158;2023-03-01T21:03:05;7.31;63.21
67572;SHT31;54397;47.506;19.158;2023-03-01T21:06:29;7.03;64.22
67572;SHT31;54397;47.506;19.158;2023-03-01T21:09:52;6.95;64.62
67572;SHT31;54397;47.506;19.158;2023-03-01T21:13:14;6.72;64.84
67572;SHT31;54397;47.506;19.158;2023-03-01T21:16:35;6.71;65.36
67572;SHT31;54397;47.506;19.158;2023-03-01T21:19:58;6.54;65.11
67572;SHT31;54397;47.506;19.158;2023-03-01T21:23:22;6.42;65.63
67572;SHT31;54397;47.506;19.158;2023-03-01T21:26:44;6.57;64.99
67572;SHT31;54397;47.506;19.158;2023-03-01T21:30:06;6.54;65.20
67572;SHT31;54397;47.506;19.158;2023-03-01T21:33:30;6.36;65.38
67572;SHT31;54397;47.506;19.158;2023-03-01T21:36:52;6.24;66.21
67572;SHT31;54397;47.506;19.158;2023-03-01T21:40:14;6.41;65.35
67572;SHT31;54397;47.506;19.158;2023-03-01T21:43:37;6.24;65.88
67572;SHT31;54397;47.506;19.158;2023-03-01T21:47:01;6.21;65.88
67572;SHT31;54397;47.506;19.158;2023-03-01T21:50:23;6.36;65.33
67572;SHT31;54397;47.506;19.158;2023-03-01T21:53:47;6.30;65.53
67572;SHT31;54397;47.506;19.158;2023-03-01T21:57:11;6.10;66.70
67572;SHT31;54397;47.506;19.158;2023-03-01T22:00:35;5.95;67.22
67572;SHT31;54397;47.506;19.158;2023-03-01T22:04:00;5.86;67.64
67572;SHT31;54397;47.506;19.158;2023-03-01T22:07:23;5.98;67.48
67572;SHT31;54397;47.506;19.158;2023-03-01T22:10:45;5.82;67.81
67572;SHT31;54397;47.506;19.158;2023-03-01T22:14:07;5.81;67.74
67572;SHT31;54397;47.506;19.158;2023-03-01T22:17:29;5.66;68.04
67572;SHT31;54397;47.506;19.158;2023-03-01T22:20:51;5.89;66.99
67572;SHT31;54397;47.506;19.158;2023-03-01T22:24:17;5.82;67.17
67572;SHT31;54397;47.506;19.158;2023-03-01T22:27:39;5.83;67.45
67572;SHT31;54397;47.506;19.158;2023-03-01T22:31:04;5.88;67.08
67572;SHT31;54397;47.506;19.158;2023-03-01T22:34:26;5.88;67.05
67572;SHT31;54397;47.506;19.158;2023-03-01T22:37:50;5.72;67.83
67572;SHT31;54397;47.506;19.158;2023-03-01T22:41:12;5.71;67.57
67572;SHT31;54397;47.506;19.158;2023-03-01T22:44:36;5.62;67.81
67572;SHT31;54397;47.506;19.158;2023-03-01T22:48:00;5.55;67.73
67572;SHT31;54397;47.506;19.158;2023-03-01T22:51:28;5.40;67.96
67572;SHT31;54397;47.506;19.158;2023-03-01T22:54:53;5.51;68.34
67572;SHT31;54397;47.506;19.158;2023-03-01T22:58:17;5.41;69.12
67572;SHT31;54397;47.506;19.158;2023-03-01T23:01:40;5.38;69.15
67572;SHT31;54397;47.506;19.158;2023-03-01T23:05:06;5.27;69.10
67572;SHT31;54397;47.506;19.158;2023-03-01T23:08:27;5.20;69.18